Time,TemperatureF,DewpointF,PressureIn,WindDirection,WindDirectionDegrees,WindSpeedMPH,WindSpeedGustMPH,Humidity,HourlyPrecipIn,Conditions,Clouds,dailyrainin,SoftwareType,DateUTC
2013-01-15 09:55:00,29.2,21.9,30.39,West,277,1.0,1.0,74,0.00,,,0.00,Wunderground v.1.15,2013-01-15 14:55:00,
2013-01-15 10:00:00,29.3,22.0,30.39,West,262,1.0,1.0,74,0.00,,,0.00,Wunderground v.1.15,2013-01-15 15:00:00,
2013-01-15 10:05:00,29.6,22.3,30.39,West,279,1.0,1.0,74,0.00,,,0.00,Wunderground v.1.15,2013-01-15 15:05:00,
2013-01-15 10:15:00,29.7,22.1,30.39,WSW,246,1.0,1.0,73,0.00,,,0.00,Wunderground v.1.15,2013-01-15 15:15:00,
2013-01-15 10:20:00,29.7,22.1,30.39,WSW,252,1.0,1.0,73,0.00,,,0.00,Wunderground v.1.15,2013-01-15 15:20:00,
2013-01-15 10:25:00,29.9,22.3,30.39,NW,304,1.0,1.0,73,0.00,,,0.00,Wunderground v.1.15,2013-01-15 15:25:00,
2013-01-15 10:30:00,30.1,22.2,30.38,WNW,286,1.0,4.0,72,0.00,,,0.00,Wunderground v.1.15,2013-01-15 15:30:00,
2013-01-15 10:35:00,30.0,22.1,30.38,West,266,1.0,8.0,72,0.00,,,0.00,Wunderground v.1.15,2013-01-15 15:35:00,
2013-01-15 10:40:00,30.1,22.2,30.38,WSW,255,1.0,8.0,72,0.00,,,0.00,Wunderground v.1.15,2013-01-15 15:40:00,
2013-01-15 10:45:00,30.4,22.4,30.38,WSW,257,1.0,8.0,72,0.00,,,0.00,Wunderground v.1.15,2013-01-15 15:45:00,
2013-01-15 10:55:00,31.0,22.7,30.36,WNW,293,1.0,8.0,71,0.00,,,0.00,Wunderground v.1.15,2013-01-15 15:55:00,
2013-01-15 11:00:00,31.2,22.5,30.36,WNW,294,1.0,8.0,70,0.00,,,0.00,Wunderground v.1.15,2013-01-15 16:00:00,
2013-01-15 11:05:00,31.7,23.0,30.37,WNW,295,1.0,8.0,70,0.00,,,0.00,Wunderground v.1.15,2013-01-15 16:05:00,
2013-01-15 11:10:00,32.5,23.1,30.36,WSW,258,1.0,8.0,68,0.00,,,0.00,Wunderground v.1.15,2013-01-15 16:10:00,
2013-01-15 11:15:00,31.9,22.2,30.37,SW,225,1.0,8.0,67,0.00,,,0.00,Wunderground v.1.15,2013-01-15 16:15:00,
2013-01-15 11:20:00,31.1,21.4,30.36,WSW,251,1.0,1.0,67,0.00,,,0.00,Wunderground v.1.15,2013-01-15 16:20:00,
2013-01-15 11:25:00,30.4,21.4,30.36,WSW,246,1.0,8.0,69,0.00,,,0.00,Wunderground v.1.15,2013-01-15 16:25:00,
2013-01-15 11:30:00,30.7,21.4,30.37,WSW,246,0.0,8.0,68,0.00,,,0.00,Wunderground v.1.15,2013-01-15 16:30:00,
2013-01-15 11:40:00,30.5,20.5,30.36,West,271,1.0,1.0,66,0.00,,,0.00,Wunderground v.1.15,2013-01-15 16:40:00,
2013-01-15 11:45:00,30.5,20.5,30.36,West,261,0.0,8.0,66,0.00,,,0.00,Wunderground v.1.15,2013-01-15 16:45:00,
2013-01-15 11:50:00,30.7,20.7,30.36,West,263,0.0,8.0,66,0.00,,,0.00,Wunderground v.1.15,2013-01-15 16:50:00,
2013-01-15 11:55:00,31.1,20.3,30.35,West,265,1.0,8.0,64,0.00,,,0.00,Wunderground v.1.15,2013-01-15 16:55:00,
2013-01-15 12:00:00,31.2,20.4,30.35,WNW,283,1.0,1.0,64,0.00,,,0.00,Wunderground v.1.15,2013-01-15 17:00:00,
2013-01-15 12:05:00,31.5,21.1,30.35,West,279,1.0,8.0,65,0.00,,,0.00,Wunderground v.1.15,2013-01-15 17:05:00,
2013-01-15 12:10:00,31.7,20.9,30.35,West,262,0.0,8.0,64,0.00,,,0.00,Wunderground v.1.15,2013-01-15 17:10:00,
2013-01-15 12:20:00,32.5,21.7,30.34,West,259,0.0,8.0,64,0.00,,,0.00,Wunderground v.1.15,2013-01-15 17:20:00,
2013-01-15 12:25:00,32.6,21.0,30.34,WSW,255,1.0,8.0,62,0.00,,,0.00,Wunderground v.1.15,2013-01-15 17:25:00,
2013-01-15 12:30:00,32.7,21.1,30.33,West,271,1.0,8.0,62,0.00,,,0.00,Wunderground v.1.15,2013-01-15 17:30:00,
2013-01-15 12:35:00,32.4,20.8,30.33,West,270,1.0,8.0,62,0.00,,,0.00,Wunderground v.1.15,2013-01-15 17:35:00,
2013-01-15 12:40:00,32.3,21.1,30.32,West,261,1.0,1.0,63,0.00,,,0.00,Wunderground v.1.15,2013-01-15 17:40:00,
2013-01-15 12:45:00,31.9,20.7,30.32,West,262,1.0,8.0,63,0.00,,,0.00,Wunderground v.1.15,2013-01-15 17:45:00,
2013-01-15 12:50:00,32.3,21.5,30.32,West,262,0.0,8.0,64,0.00,,,0.00,Wunderground v.1.15,2013-01-15 17:50:00,
2013-01-15 13:00:00,32.7,19.9,30.31,West,263,0.0,8.0,59,0.00,,,0.00,Wunderground v.1.15,2013-01-15 18:00:00,
2013-01-15 13:05:00,32.9,20.5,30.30,West,262,1.0,8.0,60,0.00,,,0.00,Wunderground v.1.15,2013-01-15 18:05:00,
2013-01-15 13:10:00,32.6,20.2,30.31,WSW,251,1.0,8.0,60,0.00,,,0.00,Wunderground v.1.15,2013-01-15 18:10:00,
2013-01-15 13:15:00,32.6,20.6,30.31,WSW,246,1.0,8.0,61,0.00,,,0.00,Wunderground v.1.15,2013-01-15 18:15:00,
2013-01-15 13:20:00,32.8,20.0,30.31,WSW,246,1.0,1.0,59,0.00,,,0.00,Wunderground v.1.15,2013-01-15 18:20:00,
2013-01-15 13:25:00,32.8,20.8,30.31,WSW,245,1.0,8.0,61,0.00,,,0.00,Wunderground v.1.15,2013-01-15 18:25:00,
2013-01-15 13:35:00,33.3,21.3,30.31,WSW,250,1.0,8.0,61,0.00,,,0.00,Wunderground v.1.15,2013-01-15 18:35:00,
2013-01-15 13:40:00,34.0,21.2,30.31,WSW,252,1.0,1.0,59,0.00,,,0.00,Wunderground v.1.15,2013-01-15 18:40:00,
2013-01-15 13:45:00,34.2,21.4,30.31,WNW,291,1.0,8.0,59,0.00,,,0.00,Wunderground v.1.15,2013-01-15 18:45:00,
2013-01-15 13:50:00,33.3,20.9,30.31,South,187,1.0,1.0,60,0.00,,,0.00,Wunderground v.1.15,2013-01-15 18:50:00,
2013-01-15 13:55:00,33.2,20.4,30.32,WNW,285,1.0,2.0,59,0.00,,,0.00,Wunderground v.1.15,2013-01-15 18:55:00,
2013-01-15 14:00:00,32.8,20.4,30.31,WNW,285,1.0,8.0,60,0.00,,,0.00,Wunderground v.1.15,2013-01-15 19:00:00,
2013-01-15 14:05:00,32.4,20.4,30.31,WNW,284,1.0,8.0,61,0.00,,,0.00,Wunderground v.1.15,2013-01-15 19:05:00,
2013-01-15 14:15:00,32.3,20.3,30.31,West,280,0.0,8.0,61,0.00,,,0.00,Wunderground v.1.15,2013-01-15 19:15:00,
2013-01-15 14:20:00,32.1,20.2,30.31,West,280,1.0,8.0,61,0.00,,,0.00,Wunderground v.1.15,2013-01-15 19:20:00,
2013-01-15 14:25:00,32.1,20.2,30.31,West,267,1.0,8.0,61,0.00,,,0.00,Wunderground v.1.15,2013-01-15 19:25:00,
2013-01-15 14:30:00,32.2,20.2,30.31,West,265,1.0,1.0,61,0.00,,,0.00,Wunderground v.1.15,2013-01-15 19:30:00,
2013-01-15 14:35:00,32.3,20.7,30.31,West,265,1.0,8.0,62,0.00,,,0.00,Wunderground v.1.15,2013-01-15 19:35:00,
2013-01-15 14:40:00,32.5,20.9,30.31,NW,307,1.0,8.0,62,0.00,,,0.00,Wunderground v.1.15,2013-01-15 19:40:00,
2013-01-15 14:45:00,32.5,20.9,30.30,NW,304,2.0,8.0,62,0.00,,,0.00,Wunderground v.1.15,2013-01-15 19:45:00,
2013-01-15 14:55:00,32.4,20.8,30.31,NW,310,2.0,8.0,62,0.00,,,0.00,Wunderground v.1.15,2013-01-15 19:55:00,
2013-01-15 15:05:00,32.2,20.6,30.31,NW,314,2.0,8.0,62,0.00,,,0.00,Wunderground v.1.15,2013-01-15 20:05:00,
2013-01-15 15:10:00,32.2,20.6,30.30,WNW,284,1.0,8.0,62,0.00,,,0.00,Wunderground v.1.15,2013-01-15 20:10:00,
2013-01-15 15:15:00,32.3,20.7,30.30,West,280,2.0,8.0,62,0.00,,,0.00,Wunderground v.1.15,2013-01-15 20:15:00,
2013-01-15 15:20:00,32.1,20.5,30.30,NW,310,2.0,2.0,62,0.00,,,0.00,Wunderground v.1.15,2013-01-15 20:20:00,
2013-01-15 15:25:00,32.2,20.6,30.30,NW,311,1.0,8.0,62,0.00,,,0.00,Wunderground v.1.15,2013-01-15 20:25:00,
2013-01-15 15:30:00,32.3,20.7,30.29,NW,311,1.0,1.0,62,0.00,,,0.00,Wunderground v.1.15,2013-01-15 20:30:00,
2013-01-15 15:40:00,32.0,20.4,30.31,NW,312,2.0,2.0,62,0.00,,,0.00,Wunderground v.1.15,2013-01-15 20:40:00,
2013-01-15 15:45:00,31.8,20.3,30.31,NW,308,1.0,8.0,62,0.00,,,0.00,Wunderground v.1.15,2013-01-15 20:45:00,
2013-01-15 15:50:00,31.6,20.1,30.31,NW,309,1.0,8.0,62,0.00,,,0.00,Wunderground v.1.15,2013-01-15 20:50:00,
2013-01-15 15:55:00,31.5,20.3,30.31,NW,309,1.0,8.0,63,0.00,,,0.00,Wunderground v.1.15,2013-01-15 20:55:00,
2013-01-15 16:05:00,31.6,20.4,30.32,NW,309,0.0,8.0,63,0.00,,,0.00,Wunderground v.1.15,2013-01-15 21:05:00,
2013-01-15 16:10:00,31.7,20.5,30.32,NW,306,0.0,8.0,63,0.00,,,0.00,Wunderground v.1.15,2013-01-15 21:10:00,
2013-01-15 16:15:00,31.8,20.6,30.32,NW,306,1.0,1.0,63,0.00,,,0.00,Wunderground v.1.15,2013-01-15 21:15:00,
2013-01-15 16:25:00,31.5,20.0,30.32,NW,305,0.0,8.0,62,0.00,,,0.00,Wunderground v.1.15,2013-01-15 21:25:00,
2013-01-15 16:30:00,31.3,19.4,30.32,NW,305,0.0,8.0,61,0.00,,,0.00,Wunderground v.1.15,2013-01-15 21:30:00,
2013-01-15 16:35:00,31.1,19.2,30.32,NW,306,0.0,8.0,61,0.00,,,0.00,Wunderground v.1.15,2013-01-15 21:35:00,
2013-01-15 16:40:00,30.9,19.4,30.32,NW,306,0.0,8.0,62,0.00,,,0.00,Wunderground v.1.15,2013-01-15 21:40:00,
2013-01-15 16:45:00,30.7,19.6,30.32,NW,305,0.0,8.0,63,0.00,,,0.00,Wunderground v.1.15,2013-01-15 21:45:00,
2013-01-15 16:50:00,30.4,19.7,30.31,NW,305,0.0,8.0,64,0.00,,,0.00,Wunderground v.1.15,2013-01-15 21:50:00,
2013-01-15 16:55:00,30.2,19.5,30.31,NW,305,0.0,8.0,64,0.00,,,0.00,Wunderground v.1.15,2013-01-15 21:55:00,
2013-01-15 17:05:00,29.9,19.2,30.30,NW,305,0.0,8.0,64,0.00,,,0.00,Wunderground v.1.15,2013-01-15 22:05:00,
2013-01-15 17:10:00,29.7,19.0,30.30,NW,305,0.0,8.0,64,0.00,,,0.00,Wunderground v.1.15,2013-01-15 22:10:00,
2013-01-15 17:15:00,29.5,19.2,30.30,NW,305,0.0,8.0,65,0.00,,,0.00,Wunderground v.1.15,2013-01-15 22:15:00,
2013-01-15 17:20:00,29.3,19.3,30.30,NW,305,0.0,8.0,66,0.00,,,0.00,Wunderground v.1.15,2013-01-15 22:20:00,
2013-01-15 17:25:00,29.2,19.2,30.30,NW,305,0.0,8.0,66,0.00,,,0.00,Wunderground v.1.15,2013-01-15 22:25:00,
2013-01-15 17:30:00,29.1,19.5,30.30,NW,305,0.0,8.0,67,0.00,,,0.00,Wunderground v.1.15,2013-01-15 22:30:00,
2013-01-15 17:40:00,28.8,19.2,30.30,NW,305,0.0,8.0,67,0.00,,,0.00,Wunderground v.1.15,2013-01-15 22:40:00,
2013-01-15 17:45:00,28.8,19.6,30.30,NW,305,0.0,8.0,68,0.00,,,0.00,Wunderground v.1.15,2013-01-15 22:45:00,
2013-01-15 17:50:00,28.7,19.5,30.30,NW,305,0.0,8.0,68,0.00,,,0.00,Wunderground v.1.15,2013-01-15 22:50:00,
2013-01-15 18:00:00,28.7,19.5,30.29,NW,305,0.0,8.0,68,0.00,,,0.00,Wunderground v.1.15,2013-01-15 23:00:00,
2013-01-15 18:05:00,28.6,19.7,30.29,NW,305,0.0,8.0,69,0.00,,,0.00,Wunderground v.1.15,2013-01-15 23:05:00,
2013-01-15 18:10:00,28.6,19.7,30.29,NW,305,0.0,8.0,69,0.00,,,0.00,Wunderground v.1.15,2013-01-15 23:10:00,
2013-01-15 18:15:00,28.5,19.6,30.28,NW,305,0.0,8.0,69,0.00,,,0.00,Wunderground v.1.15,2013-01-15 23:15:00,
2013-01-15 18:20:00,28.4,19.5,30.29,NW,305,0.0,8.0,69,0.00,,,0.00,Wunderground v.1.15,2013-01-15 23:20:00,
2013-01-15 18:25:00,28.4,19.9,30.29,NW,305,0.0,8.0,70,0.00,,,0.00,Wunderground v.1.15,2013-01-15 23:25:00,
2013-01-15 18:30:00,28.3,19.8,30.30,NW,305,0.0,8.0,70,0.00,,,0.00,Wunderground v.1.15,2013-01-15 23:30:00,
2013-01-15 18:40:00,28.1,19.6,30.30,NW,305,0.0,8.0,70,0.00,,,0.00,Wunderground v.1.15,2013-01-15 23:40:00,
2013-01-15 18:50:00,28.0,19.8,30.29,NW,305,0.0,8.0,71,0.00,,,0.00,Wunderground v.1.15,2013-01-15 23:50:00,
2013-01-15 18:55:00,28.0,19.8,30.29,NW,305,0.0,8.0,71,0.00,,,0.00,Wunderground v.1.15,2013-01-15 23:55:00,
2013-01-15 19:00:00,27.9,20.0,30.29,NW,305,0.0,8.0,72,0.00,,,0.00,Wunderground v.1.15,2013-01-16 00:00:00,
2013-01-15 19:05:00,27.9,20.0,30.28,NW,305,0.0,8.0,72,0.00,,,0.00,Wunderground v.1.15,2013-01-16 00:05:00,
2013-01-15 19:10:00,27.8,19.9,30.28,NW,305,0.0,8.0,72,0.00,,,0.00,Wunderground v.1.15,2013-01-16 00:10:00,
2013-01-15 19:15:00,27.8,19.9,30.28,NW,305,0.0,8.0,72,0.00,,,0.00,Wunderground v.1.15,2013-01-16 00:15:00,
2013-01-15 19:20:00,27.7,19.8,30.28,NW,305,0.0,8.0,72,0.00,,,0.00,Wunderground v.1.15,2013-01-16 00:20:00,
2013-01-15 19:30:00,27.6,20.1,30.28,NW,305,0.0,8.0,73,0.00,,,0.00,Wunderground v.1.15,2013-01-16 00:30:00,
2013-01-15 19:35:00,27.7,20.5,30.29,NW,305,0.0,8.0,74,0.00,,,0.00,Wunderground v.1.15,2013-01-16 00:35:00,
2013-01-15 19:40:00,27.7,20.5,30.28,NW,305,0.0,8.0,74,0.00,,,0.00,Wunderground v.1.15,2013-01-16 00:40:00,
2013-01-15 19:45:00,27.8,20.6,30.28,NW,305,0.0,8.0,74,0.00,,,0.00,Wunderground v.1.15,2013-01-16 00:45:00,
2013-01-15 19:50:00,27.8,20.6,30.27,NW,305,0.0,8.0,74,0.00,,,0.00,Wunderground v.1.15,2013-01-16 00:50:00,
2013-01-15 19:55:00,27.8,20.6,30.25,NW,305,0.0,8.0,74,0.00,,,0.00,Wunderground v.1.15,2013-01-16 00:55:00,
2013-01-15 20:05:00,27.8,20.6,30.26,NW,305,0.0,8.0,74,0.00,,,0.00,Wunderground v.1.15,2013-01-16 01:05:00,
2013-01-15 20:10:00,27.8,20.6,30.26,NW,305,0.0,8.0,74,0.00,,,0.00,Wunderground v.1.15,2013-01-16 01:10:00,
2013-01-15 20:15:00,27.8,20.6,30.26,NW,305,0.0,8.0,74,0.00,,,0.00,Wunderground v.1.15,2013-01-16 01:15:00,
2013-01-15 20:20:00,27.8,20.9,30.26,NW,305,0.0,8.0,75,0.00,,,0.00,Wunderground v.1.15,2013-01-16 01:20:00,
2013-01-15 20:25:00,27.8,20.9,30.27,NW,305,0.0,8.0,75,0.00,,,0.00,Wunderground v.1.15,2013-01-16 01:25:00,
2013-01-15 20:30:00,27.8,20.9,30.26,NW,305,0.0,8.0,75,0.00,,,0.00,Wunderground v.1.15,2013-01-16 01:30:00,
2013-01-15 20:35:00,27.8,20.9,30.26,NW,305,0.0,8.0,75,0.00,,,0.00,Wunderground v.1.15,2013-01-16 01:35:00,
2013-01-15 20:45:00,27.8,21.2,30.26,NW,305,0.0,8.0,76,0.00,,,0.00,Wunderground v.1.15,2013-01-16 01:45:00,
2013-01-15 20:50:00,27.8,21.2,30.26,NW,305,0.0,8.0,76,0.00,,,0.00,Wunderground v.1.15,2013-01-16 01:50:00,
2013-01-15 20:55:00,27.8,21.2,30.26,NW,305,0.0,8.0,76,0.00,,,0.00,Wunderground v.1.15,2013-01-16 01:55:00,
2013-01-15 21:00:00,27.8,21.2,30.25,NW,305,0.0,8.0,76,0.00,,,0.00,Wunderground v.1.15,2013-01-16 02:00:00,
2013-01-15 21:05:00,27.8,21.2,30.25,NW,305,0.0,8.0,76,0.00,,,0.00,Wunderground v.1.15,2013-01-16 02:05:00,
2013-01-15 21:10:00,27.9,21.3,30.25,NW,305,0.0,8.0,76,0.00,,,0.00,Wunderground v.1.15,2013-01-16 02:10:00,
2013-01-15 21:15:00,27.8,21.2,30.25,NW,305,0.0,8.0,76,0.00,,,0.00,Wunderground v.1.15,2013-01-16 02:15:00,
2013-01-15 21:25:00,27.9,21.6,30.25,NW,305,0.0,8.0,77,0.00,,,0.00,Wunderground v.1.15,2013-01-16 02:25:00,
2013-01-15 21:30:00,27.9,21.6,30.24,NW,305,0.0,8.0,77,0.00,,,0.00,Wunderground v.1.15,2013-01-16 02:30:00,
2013-01-15 21:35:00,27.9,21.6,30.24,NW,305,0.0,8.0,77,0.00,,,0.00,Wunderground v.1.15,2013-01-16 02:35:00,
2013-01-15 21:40:00,27.9,21.6,30.24,NW,305,0.0,8.0,77,0.00,,,0.00,Wunderground v.1.15,2013-01-16 02:40:00,
2013-01-15 21:45:00,27.9,21.6,30.23,NW,305,0.0,8.0,77,0.00,,,0.00,Wunderground v.1.15,2013-01-16 02:45:00,
2013-01-15 21:50:00,27.9,21.6,30.23,NW,305,0.0,8.0,77,0.00,,,0.00,Wunderground v.1.15,2013-01-16 02:50:00,
2013-01-15 21:55:00,27.9,21.6,30.23,NW,305,0.0,8.0,77,0.00,,,0.00,Wunderground v.1.15,2013-01-16 02:55:00,
2013-01-15 22:05:00,27.9,21.6,30.23,NW,305,0.0,8.0,77,0.00,,,0.00,Wunderground v.1.15,2013-01-16 03:05:00,
2013-01-15 22:10:00,27.9,21.6,30.23,NW,305,0.0,8.0,77,0.00,,,0.00,Wunderground v.1.15,2013-01-16 03:10:00,
2013-01-15 22:15:00,28.0,21.7,30.23,NW,305,0.0,8.0,77,0.00,,,0.00,Wunderground v.1.15,2013-01-16 03:15:00,
2013-01-15 22:20:00,28.0,21.7,30.23,NW,305,0.0,8.0,77,0.00,,,0.00,Wunderground v.1.15,2013-01-16 03:20:00,
2013-01-15 22:25:00,28.0,21.7,30.23,NW,305,0.0,8.0,77,0.00,,,0.00,Wunderground v.1.15,2013-01-16 03:25:00,
2013-01-15 22:30:00,28.0,21.7,30.22,NW,305,0.0,8.0,77,0.00,,,0.00,Wunderground v.1.15,2013-01-16 03:30:00,
2013-01-15 22:40:00,28.0,21.7,30.22,NW,305,0.0,8.0,77,0.00,,,0.00,Wunderground v.1.15,2013-01-16 03:40:00,
2013-01-15 22:50:00,28.0,21.7,30.22,NW,305,0.0,8.0,77,0.00,,,0.00,Wunderground v.1.15,2013-01-16 03:50:00,
2013-01-15 22:55:00,28.0,21.7,30.21,NW,305,0.0,8.0,77,0.00,,,0.00,Wunderground v.1.15,2013-01-16 03:55:00,
2013-01-15 23:00:00,28.1,21.8,30.21,NW,305,0.0,8.0,77,0.00,,,0.00,Wunderground v.1.15,2013-01-16 04:00:00,
2013-01-15 23:05:00,28.0,21.7,30.21,NW,305,0.0,8.0,77,0.00,,,0.00,Wunderground v.1.15,2013-01-16 04:05:00,
2013-01-15 23:10:00,28.1,22.1,30.20,NW,305,0.0,8.0,78,0.00,,,0.00,Wunderground v.1.15,2013-01-16 04:10:00,
2013-01-15 23:15:00,28.1,22.1,30.19,NW,305,0.0,8.0,78,0.00,,,0.00,Wunderground v.1.15,2013-01-16 04:15:00,
2013-01-15 23:20:00,28.1,22.1,30.19,NW,305,0.0,8.0,78,0.00,,,0.00,Wunderground v.1.15,2013-01-16 04:20:00,
2013-01-15 23:30:00,28.1,22.1,30.19,NW,305,0.0,8.0,78,0.00,,,0.00,Wunderground v.1.15,2013-01-16 04:30:00,
2013-01-15 23:35:00,28.1,22.1,30.18,NW,305,0.0,8.0,78,0.00,,,0.00,Wunderground v.1.15,2013-01-16 04:35:00,
2013-01-15 23:40:00,28.1,21.8,30.18,NW,305,0.0,8.0,77,0.00,,,0.00,Wunderground v.1.15,2013-01-16 04:40:00,
2013-01-15 23:45:00,28.1,21.8,30.18,NW,305,0.0,8.0,77,0.00,,,0.00,Wunderground v.1.15,2013-01-16 04:45:00,
2013-01-15 23:50:00,28.1,21.8,30.18,NW,305,0.0,8.0,77,0.00,,,0.00,Wunderground v.1.15,2013-01-16 04:50:00,